createdAt,value
2019-05-14T00:01:37.829Z,-0.12
2019-05-14T00:04:04.074Z,-0.11
2019-05-14T00:06:31.163Z,-0.10
2019-05-14T00:08:57.573Z,-0.05
2019-05-14T00:11:23.803Z,0.03
2019-05-14T00:13:52.022Z,0.03
2019-05-14T00:16:18.174Z,0.00
2019-05-14T00:18:44.412Z,-0.04
2019-05-14T00:21:12.209Z,-0.63
2019-05-14T00:23:38.741Z,-0.07
2019-05-14T00:26:04.977Z,-0.07
2019-05-14T00:28:31.729Z,-0.04
2019-05-14T00:30:58.268Z,-0.06
2019-05-14T00:33:24.526Z,-0.10
2019-05-14T00:35:51.484Z,-0.10
2019-05-14T00:38:18.008Z,-0.11
2019-05-14T00:40:44.256Z,-0.08
2019-05-14T00:43:11.388Z,-0.02
2019-05-14T00:45:37.726Z,-0.03
2019-05-14T00:48:03.957Z,-0.04
2019-05-14T00:50:31.707Z,-0.06
2019-05-14T00:52:58.144Z,-0.06
2019-05-14T00:55:24.375Z,0.02
2019-05-14T00:57:52.142Z,0.01
2019-05-14T01:00:18.593Z,-0.01
2019-05-14T01:02:44.824Z,-0.04
2019-05-14T01:05:12.449Z,-0.04
2019-05-14T01:07:38.910Z,-0.04
2019-05-14T01:10:06.466Z,-0.06
2019-05-14T01:12:32.692Z,-0.11
2019-05-14T01:15:09.623Z,-0.14
2019-05-14T01:17:27.085Z,-0.13
2019-05-14T01:19:53.331Z,-0.09
2019-05-14T01:22:21.300Z,-0.06
2019-05-14T01:24:47.714Z,-0.05
2019-05-14T01:27:13.947Z,-0.07
2019-05-14T01:29:42.347Z,-0.06
2019-05-14T01:32:08.323Z,-0.07
2019-05-14T01:34:34.592Z,-0.02
2019-05-14T01:37:02.425Z,0.03
2019-05-14T01:39:28.891Z,0.05
2019-05-14T01:41:55.135Z,0.09
2019-05-14T01:44:21.510Z,0.12
2019-05-14T01:46:47.752Z,0.09
2019-05-14T01:49:13.990Z,0.08
2019-05-14T01:51:42.414Z,0.05
2019-05-14T01:54:08.348Z,0.02
2019-05-14T01:56:34.587Z,0.13
2019-05-14T01:59:01.709Z,0.12
2019-05-14T02:01:28.264Z,0.10
2019-05-14T02:03:54.493Z,0.12
2019-05-14T02:06:21.245Z,0.12
2019-05-14T02:08:47.779Z,0.13
2019-05-14T02:11:14.031Z,0.17
2019-05-14T02:13:41.427Z,0.20
2019-05-14T02:16:07.962Z,0.23
2019-05-14T02:18:34.179Z,0.21
2019-05-14T02:21:01.601Z,0.27
2019-05-14T02:23:28.157Z,0.34
2019-05-14T02:25:54.385Z,0.41
2019-05-14T02:28:22.128Z,0.42
2019-05-14T02:30:57.696Z,0.46
2019-05-14T02:33:19.181Z,0.48
2019-05-14T02:35:44.879Z,0.49
2019-05-14T02:38:11.131Z,0.56
2019-05-14T02:40:40.421Z,0.59
2019-05-14T02:43:05.928Z,0.69
2019-05-14T02:45:32.466Z,0.75
2019-05-14T02:48:00.444Z,0.79
2019-05-14T02:50:29.510Z,0.84
2019-05-14T02:52:54.999Z,0.90
2019-05-14T02:55:21.235Z,0.96
2019-05-14T02:57:50.179Z,1.00
2019-05-14T03:00:19.099Z,1.10
2019-05-14T03:02:44.160Z,1.15
2019-05-14T03:05:10.790Z,1.24
2019-05-14T03:07:39.281Z,1.31
2019-05-14T03:10:05.672Z,1.46
2019-05-14T03:12:31.911Z,1.56
2019-05-14T03:14:58.874Z,1.58
2019-05-14T03:17:25.495Z,1.63
2019-05-14T03:19:51.764Z,1.69
2019-05-14T03:22:26.326Z,1.76
2019-05-14T03:24:46.177Z,1.85
2019-05-14T03:27:12.408Z,1.87
2019-05-14T03:29:39.853Z,1.88
2019-05-14T03:32:11.970Z,2.00
2019-05-14T03:34:34.986Z,2.04
2019-05-14T03:37:03.136Z,2.11
2019-05-14T03:39:29.760Z,2.19
2019-05-14T03:41:58.733Z,2.32
2019-05-14T03:44:24.259Z,2.39
2019-05-14T03:46:55.278Z,2.51
2019-05-14T03:49:19.919Z,2.57
2019-05-14T03:51:49.425Z,2.68
2019-05-14T03:54:14.513Z,2.79
2019-05-14T03:56:40.760Z,2.89
2019-05-14T03:59:09.553Z,3.01
2019-05-14T04:01:35.145Z,3.22
2019-05-14T04:04:01.472Z,3.43
2019-05-14T04:06:30.141Z,3.71
2019-05-14T04:09:00.538Z,4.02
2019-05-14T04:11:29.437Z,4.37
2019-05-14T04:14:00.136Z,4.77
2019-05-14T04:16:29.250Z,5.13
2019-05-14T04:18:59.563Z,5.47
2019-05-14T04:21:29.882Z,5.85
2019-05-14T04:23:59.428Z,6.19
2019-05-14T04:26:30.209Z,6.45
2019-05-14T04:29:00.416Z,6.75
2019-05-14T04:31:30.063Z,7.18
2019-05-14T04:33:59.166Z,7.48
2019-05-14T04:36:25.644Z,7.63
2019-05-14T04:38:55.307Z,7.97
2019-05-14T04:41:20.044Z,8.30
2019-05-14T04:43:49.954Z,8.72
2019-05-14T04:46:19.480Z,8.96
2019-05-14T04:48:44.484Z,9.11
2019-05-14T04:51:10.827Z,9.40
2019-05-14T04:53:39.304Z,9.88
2019-05-14T04:56:05.286Z,10.05
2019-05-14T04:58:31.547Z,10.43
2019-05-14T05:01:00.597Z,10.72
2019-05-14T05:03:25.947Z,11.11
2019-05-14T05:05:52.175Z,11.47
2019-05-14T05:08:19.926Z,11.46
2019-05-14T05:10:49.178Z,11.76
2019-05-14T05:13:14.508Z,12.00
2019-05-14T05:15:40.740Z,12.58
2019-05-14T05:18:09.511Z,13.08
2019-05-14T05:20:35.117Z,13.11
2019-05-14T05:23:01.460Z,13.15
2019-05-14T05:25:29.206Z,13.58
2019-05-14T05:27:56.503Z,13.78
2019-05-14T05:30:23.571Z,13.93
2019-05-14T05:32:49.802Z,13.84
2019-05-14T05:35:18.453Z,14.22
2019-05-14T05:37:44.204Z,14.53
2019-05-14T05:40:10.549Z,14.59
2019-05-14T05:42:38.578Z,14.98
2019-05-14T05:45:07.983Z,15.01
2019-05-14T05:47:33.781Z,15.20
2019-05-14T05:50:00.031Z,14.87
2019-05-14T05:52:28.220Z,14.86
2019-05-14T05:54:54.400Z,14.94
2019-05-14T05:57:20.635Z,15.13
2019-05-14T05:59:48.537Z,15.19
2019-05-14T06:02:15.124Z,15.17
2019-05-14T06:04:41.374Z,15.12
2019-05-14T06:07:08.861Z,15.34
2019-05-14T06:09:35.354Z,15.33
2019-05-14T06:12:01.606Z,15.16
2019-05-14T06:14:29.133Z,15.23
2019-05-14T06:16:55.589Z,15.20
2019-05-14T06:19:21.820Z,15.89
2019-05-14T06:21:48.965Z,16.44
2019-05-14T06:24:15.499Z,16.61
2019-05-14T06:26:41.743Z,16.89
2019-05-14T06:29:08.609Z,16.97
2019-05-14T06:31:35.051Z,17.10
2019-05-14T06:34:01.323Z,17.09
2019-05-14T06:36:29.063Z,17.09
2019-05-14T06:38:55.595Z,17.21
2019-05-14T06:41:21.852Z,17.62
2019-05-14T06:43:48.819Z,17.57
2019-05-14T06:46:15.268Z,17.52
2019-05-14T06:48:41.503Z,16.85
2019-05-14T06:51:08.817Z,16.52
2019-05-14T06:53:35.323Z,16.37
2019-05-14T06:56:01.592Z,15.83
2019-05-14T06:58:29.763Z,15.37
2019-05-14T07:00:58.495Z,15.88
2019-05-14T07:03:24.170Z,16.30
2019-05-14T07:05:50.445Z,16.93
2019-05-14T07:08:18.842Z,17.29
2019-05-14T07:10:44.842Z,17.66
2019-05-14T07:13:11.109Z,17.56
2019-05-14T07:15:38.613Z,17.55
2019-05-14T07:18:05.126Z,17.72
2019-05-14T07:20:31.369Z,17.64
2019-05-14T07:22:58.629Z,17.67
2019-05-14T07:25:25.065Z,17.98
2019-05-14T07:27:51.332Z,18.06
2019-05-14T07:30:19.347Z,17.52
2019-05-14T07:32:48.216Z,18.27
2019-05-14T07:35:14.174Z,18.54
2019-05-14T07:37:40.456Z,18.81
2019-05-14T07:40:08.586Z,18.84
2019-05-14T07:42:35.027Z,18.13
2019-05-14T07:45:01.326Z,19.08
2019-05-14T07:47:29.128Z,18.16
2019-05-14T07:49:55.493Z,18.03
2019-05-14T07:52:21.757Z,17.86
2019-05-14T07:54:48.197Z,18.32
2019-05-14T07:57:14.545Z,18.97
2019-05-14T07:59:40.801Z,18.81
2019-05-14T08:02:09.241Z,18.29
2019-05-14T08:04:35.181Z,18.59
2019-05-14T08:07:01.411Z,18.39
2019-05-14T08:09:28.389Z,18.03
2019-05-14T08:11:54.792Z,17.33
2019-05-14T08:14:21.038Z,17.20
2019-05-14T08:16:48.934Z,16.54
2019-05-14T08:19:25.368Z,16.36
2019-05-14T08:21:43.511Z,15.85
2019-05-14T08:24:09.760Z,16.54
2019-05-14T08:26:38.043Z,17.11
2019-05-14T08:29:08.711Z,17.25
2019-05-14T08:31:35.066Z,17.70
2019-05-14T08:34:04.774Z,17.21
2019-05-14T08:36:29.480Z,18.00
2019-05-14T08:38:58.000Z,18.00
2019-05-14T08:41:23.879Z,17.48
2019-05-14T08:43:50.106Z,17.14
2019-05-14T08:46:18.858Z,16.56
2019-05-14T08:48:44.535Z,15.97
2019-05-14T08:51:10.788Z,15.88
2019-05-14T08:53:38.517Z,16.07
2019-05-14T08:56:05.091Z,16.52
2019-05-14T08:58:31.336Z,17.03
2019-05-14T09:00:58.874Z,16.97
2019-05-14T09:03:25.259Z,16.49
2019-05-14T09:05:51.499Z,16.33
2019-05-14T09:08:19.165Z,16.50
2019-05-14T09:10:45.721Z,16.79
2019-05-14T09:13:11.971Z,16.49
2019-05-14T09:15:38.560Z,16.18
2019-05-14T09:18:04.906Z,16.08
2019-05-14T09:20:31.124Z,16.94
2019-05-14T09:22:59.427Z,17.80
2019-05-14T09:25:25.572Z,17.97
2019-05-14T09:27:51.822Z,18.33
2019-05-14T09:30:18.623Z,17.70
2019-05-14T09:32:45.043Z,17.03
2019-05-14T09:35:11.429Z,16.57
2019-05-14T09:37:39.613Z,16.68
2019-05-14T09:40:08.740Z,16.72
2019-05-14T09:42:34.920Z,16.45
2019-05-14T09:45:01.166Z,16.40
2019-05-14T09:47:28.276Z,17.07
2019-05-14T09:49:54.690Z,17.38
2019-05-14T09:52:20.958Z,17.05
2019-05-14T09:54:49.381Z,16.42
2019-05-14T09:57:15.408Z,16.14
2019-05-14T09:59:41.624Z,16.06
2019-05-14T10:02:09.171Z,16.16
2019-05-14T10:04:35.925Z,16.59
2019-05-14T10:07:02.177Z,16.76
2019-05-14T10:09:29.003Z,17.47
2019-05-14T10:11:55.495Z,17.72
2019-05-14T10:14:21.741Z,17.92
2019-05-14T10:16:49.027Z,18.10
2019-05-14T10:19:15.549Z,18.21
2019-05-14T10:21:41.778Z,18.71
2019-05-14T10:24:09.449Z,19.20
2019-05-14T10:26:36.354Z,19.33
2019-05-14T10:29:02.618Z,18.45
2019-05-14T10:31:29.129Z,17.84
2019-05-14T10:33:55.530Z,17.58
2019-05-14T10:36:21.776Z,17.17
2019-05-14T10:38:48.040Z,16.73
2019-05-14T10:41:14.272Z,16.57
2019-05-14T10:43:40.521Z,16.63
2019-05-14T10:46:09.123Z,16.47
2019-05-14T10:48:34.916Z,17.01
2019-05-14T10:51:03.538Z,17.16
2019-05-14T10:53:29.333Z,18.05
2019-05-14T10:55:55.593Z,18.83
2019-05-14T10:58:21.841Z,19.03
2019-05-14T11:00:49.503Z,18.92
2019-05-14T11:03:18.465Z,18.37
2019-05-14T11:05:44.106Z,18.02
2019-05-14T11:08:11.853Z,17.67
2019-05-14T11:10:42.133Z,17.38
2019-05-14T11:13:08.984Z,17.47
2019-05-14T11:15:34.819Z,18.03
2019-05-14T11:18:01.059Z,17.90
2019-05-14T11:20:31.047Z,17.98
2019-05-14T11:22:58.306Z,17.98
2019-05-14T11:25:23.664Z,18.00
2019-05-14T11:27:49.899Z,18.07
2019-05-14T11:30:19.011Z,17.71
2019-05-14T11:32:44.492Z,17.42
2019-05-14T11:35:13.015Z,17.36
2019-05-14T11:37:41.503Z,16.85
2019-05-14T11:40:08.706Z,16.63
2019-05-14T11:42:35.057Z,16.57
2019-05-14T11:45:01.294Z,16.57
2019-05-14T11:47:27.541Z,15.30
2019-05-14T11:49:53.775Z,16.23
2019-05-14T11:52:20.024Z,16.22
2019-05-14T11:54:49.203Z,16.18
2019-05-14T11:57:14.428Z,16.09
2019-05-14T11:59:40.671Z,15.85
2019-05-14T12:02:09.459Z,16.07
2019-05-14T12:04:35.077Z,16.68
2019-05-14T12:07:01.328Z,16.56
2019-05-14T12:09:28.371Z,16.81
2019-05-14T12:11:54.752Z,16.79
2019-05-14T12:14:21.000Z,17.29
2019-05-14T12:16:49.417Z,17.31
2019-05-14T12:19:15.434Z,17.50
2019-05-14T12:21:57.489Z,17.65
2019-05-14T12:24:13.712Z,17.59
2019-05-14T12:26:39.121Z,17.60
2019-05-14T12:29:05.357Z,17.66
2019-05-14T12:31:31.590Z,17.98
2019-05-14T12:33:58.376Z,17.78
2019-05-14T12:36:24.795Z,17.49
2019-05-14T12:38:51.052Z,17.17
2019-05-14T12:41:19.448Z,17.01
2019-05-14T12:43:45.478Z,17.10
2019-05-14T12:46:11.732Z,16.83
2019-05-14T12:48:38.990Z,16.62
2019-05-14T12:51:05.551Z,16.41
2019-05-14T12:53:31.817Z,16.41
2019-05-14T12:55:58.059Z,16.75
2019-05-14T12:58:24.320Z,16.86
2019-05-14T13:00:50.653Z,17.00
2019-05-14T13:03:19.046Z,16.93
2019-05-14T13:05:45.051Z,16.87
2019-05-14T13:08:11.592Z,16.88
2019-05-14T13:10:38.576Z,16.68
2019-05-14T13:13:05.178Z,16.83
2019-05-14T13:15:31.455Z,16.66
2019-05-14T13:17:57.742Z,17.06
2019-05-14T13:20:23.998Z,17.13
2019-05-14T13:22:50.590Z,17.14
2019-05-14T13:25:18.907Z,16.88
2019-05-14T13:27:45.129Z,17.15
2019-05-14T13:30:11.781Z,17.14
2019-05-14T13:32:39.332Z,16.96
2019-05-14T13:35:10.474Z,16.68
2019-05-14T13:37:35.021Z,16.20
2019-05-14T13:40:01.586Z,16.46
2019-05-14T13:42:29.560Z,16.26
2019-05-14T13:44:58.326Z,16.03
2019-05-14T13:47:24.228Z,15.66
2019-05-14T13:49:50.500Z,15.53
2019-05-14T13:52:18.735Z,15.42
2019-05-14T13:54:45.347Z,15.07
2019-05-14T13:57:12.294Z,15.04
2019-05-14T13:59:43.780Z,14.81
2019-05-14T14:02:09.601Z,14.73
2019-05-14T14:04:34.928Z,14.73
2019-05-14T14:07:01.184Z,14.70
2019-05-14T14:09:28.440Z,14.79
2019-05-14T14:11:55.605Z,14.84
2019-05-14T14:14:21.877Z,14.72
2019-05-14T14:16:48.915Z,14.70
2019-05-14T14:19:15.392Z,14.58
2019-05-14T14:21:41.676Z,14.68
2019-05-14T14:24:09.594Z,14.45
2019-05-14T14:26:39.067Z,14.42
2019-05-14T14:29:04.265Z,14.49
2019-05-14T14:31:30.508Z,14.52
2019-05-14T14:33:56.801Z,14.53
2019-05-14T14:36:23.087Z,14.64
2019-05-14T14:38:49.828Z,14.51
2019-05-14T14:41:19.054Z,14.59
2019-05-14T14:43:44.816Z,14.70
2019-05-14T14:46:14.055Z,14.84
2019-05-14T14:48:39.678Z,14.75
2019-05-14T14:51:08.470Z,14.81
2019-05-14T14:53:50.427Z,14.59
2019-05-14T14:56:02.481Z,14.56
2019-05-14T14:58:28.758Z,14.35
2019-05-14T15:00:54.997Z,14.22
2019-05-14T15:03:21.510Z,14.43
2019-05-14T15:05:49.848Z,14.43
2019-05-14T15:08:15.941Z,14.44
2019-05-14T15:10:42.173Z,14.40
2019-05-14T15:13:09.327Z,14.31
2019-05-14T15:15:35.889Z,14.14
2019-05-14T15:18:02.145Z,14.11
2019-05-14T15:20:28.924Z,14.13
2019-05-14T15:22:55.453Z,14.07
2019-05-14T15:25:21.683Z,14.05
2019-05-14T15:27:50.099Z,14.14
2019-05-14T15:30:16.339Z,14.15
2019-05-14T15:32:42.613Z,14.15
2019-05-14T15:35:10.831Z,14.13
2019-05-14T15:37:42.134Z,14.04
2019-05-14T15:40:06.101Z,14.06
2019-05-14T15:42:32.343Z,14.03
2019-05-14T15:44:59.774Z,13.97
2019-05-14T15:47:26.323Z,13.95
2019-05-14T15:49:52.597Z,14.00
2019-05-14T15:52:19.414Z,13.93
2019-05-14T15:54:49.699Z,13.90
2019-05-14T15:57:14.011Z,13.93
2019-05-14T15:59:40.254Z,13.88
2019-05-14T16:02:09.464Z,13.88
2019-05-14T16:04:34.659Z,13.87
2019-05-14T16:07:00.893Z,13.91
2019-05-14T16:09:28.886Z,13.92
2019-05-14T16:11:55.311Z,13.92
2019-05-14T16:14:21.563Z,13.88
2019-05-14T16:16:50.575Z,13.84
2019-05-14T16:19:19.043Z,13.83
2019-05-14T16:21:44.972Z,13.78
2019-05-14T16:24:11.206Z,13.59
2019-05-14T16:26:37.514Z,13.43
2019-05-14T16:29:03.945Z,13.25
2019-05-14T16:31:31.645Z,13.15
2019-05-14T16:33:58.164Z,13.06
2019-05-14T16:36:24.423Z,12.90
2019-05-14T16:38:50.667Z,12.81
2019-05-14T16:41:18.425Z,12.76
2019-05-14T16:43:49.181Z,12.75
2019-05-14T16:46:14.850Z,12.76
2019-05-14T16:48:41.100Z,12.67
2019-05-14T16:51:08.968Z,12.65
2019-05-14T16:53:37.843Z,12.61
2019-05-14T16:56:04.098Z,12.55
2019-05-14T16:58:30.332Z,12.35
2019-05-14T17:00:58.712Z,12.31
2019-05-14T17:03:24.719Z,12.28
2019-05-14T17:05:50.978Z,12.29
2019-05-14T17:08:19.106Z,12.23
2019-05-14T17:10:45.340Z,12.13
2019-05-14T17:13:11.627Z,12.04
2019-05-14T17:15:39.381Z,11.93
2019-05-14T17:18:08.642Z,11.83
2019-05-14T17:20:33.960Z,11.79
2019-05-14T17:23:00.219Z,11.72
2019-05-14T17:25:30.057Z,11.68
2019-05-14T17:27:54.598Z,11.62
2019-05-14T17:30:20.840Z,11.52
2019-05-14T17:32:49.410Z,11.44
2019-05-14T17:35:15.209Z,11.46
2019-05-14T17:37:41.452Z,11.38
2019-05-14T17:40:09.441Z,11.37
2019-05-14T17:42:36.056Z,11.36
2019-05-14T17:45:05.528Z,11.23
2019-05-14T17:47:31.782Z,11.17
2019-05-14T17:50:01.292Z,11.15
2019-05-14T17:52:30.097Z,11.10
2019-05-14T17:54:55.675Z,11.03
2019-05-14T17:57:24.821Z,11.01
2019-05-14T17:59:50.068Z,10.94
2019-05-14T18:02:18.938Z,10.86
2019-05-14T18:04:44.491Z,10.80
2019-05-14T18:07:10.734Z,10.75
2019-05-14T18:09:36.987Z,10.77
2019-05-14T18:12:03.224Z,10.74
2019-05-14T18:14:29.453Z,10.70
2019-05-14T18:16:58.300Z,10.67
2019-05-14T18:19:23.844Z,10.62
2019-05-14T18:21:50.087Z,10.57
2019-05-14T18:24:18.764Z,10.54
2019-05-14T18:26:44.490Z,10.50
2019-05-14T18:29:10.733Z,10.45
2019-05-14T18:31:43.235Z,10.35
2019-05-14T18:34:05.142Z,10.23
2019-05-14T18:36:31.383Z,10.13
2019-05-14T18:38:58.559Z,9.97
2019-05-14T18:41:25.071Z,9.88
2019-05-14T18:43:51.352Z,9.73
2019-05-14T18:46:19.187Z,9.66
2019-05-14T18:48:48.430Z,9.52
2019-05-14T18:51:13.870Z,9.36
2019-05-14T18:53:40.101Z,9.26
2019-05-14T18:56:19.676Z,9.18
2019-05-14T18:58:34.497Z,9.03
2019-05-14T19:01:02.568Z,8.87
2019-05-14T19:03:28.803Z,8.72
2019-05-14T19:05:55.042Z,8.64
2019-05-14T19:08:21.276Z,8.52
2019-05-14T19:10:49.555Z,8.39
2019-05-14T19:13:15.658Z,8.22
2019-05-14T19:15:41.899Z,8.14
2019-05-14T19:18:09.109Z,8.03
2019-05-14T19:20:35.590Z,7.91
2019-05-14T19:23:01.835Z,7.79
2019-05-14T19:25:28.078Z,7.69
2019-05-14T19:27:54.331Z,7.61
2019-05-14T19:30:20.585Z,7.49
2019-05-14T19:32:48.567Z,7.39
2019-05-14T19:35:14.999Z,7.26
2019-05-14T19:37:41.214Z,7.18
2019-05-14T19:40:09.227Z,7.11
2019-05-14T19:42:35.803Z,7.00
2019-05-14T19:45:02.142Z,6.90
2019-05-14T19:47:28.395Z,6.85
2019-05-14T19:49:54.622Z,6.75
2019-05-14T19:52:20.872Z,6.70
2019-05-14T19:54:48.901Z,6.61
2019-05-14T19:57:15.259Z,6.51
2019-05-14T19:59:41.491Z,6.44
2019-05-14T20:02:09.526Z,6.33
2019-05-14T20:04:35.923Z,6.23
2019-05-14T20:07:02.171Z,6.11
2019-05-14T20:09:28.392Z,6.01
2019-05-14T20:11:54.623Z,5.92
2019-05-14T20:14:20.866Z,5.80
2019-05-14T20:16:49.149Z,5.66
2019-05-14T20:19:15.257Z,5.54
2019-05-14T20:21:41.525Z,5.46
2019-05-14T20:24:07.770Z,5.38
2019-05-14T20:26:34.012Z,5.32
2019-05-14T20:29:00.260Z,5.24
2019-05-14T20:31:26.490Z,5.17
2019-05-14T20:33:52.736Z,5.07
2019-05-14T20:36:19.027Z,4.93
2019-05-14T20:38:45.311Z,4.75
2019-05-14T20:41:11.550Z,4.57
2019-05-14T20:43:38.503Z,4.44
2019-05-14T20:46:04.931Z,4.34
2019-05-14T20:48:31.170Z,4.21
2019-05-14T20:50:58.438Z,4.14
2019-05-14T20:53:24.774Z,4.06
2019-05-14T20:55:51.007Z,3.97
2019-05-14T20:58:19.853Z,3.88
2019-05-14T21:00:45.431Z,3.78
2019-05-14T21:03:11.657Z,3.65
2019-05-14T21:05:38.929Z,3.52
2019-05-14T21:08:06.174Z,3.42
2019-05-14T21:10:32.415Z,3.38
2019-05-14T21:12:58.764Z,3.32
2019-05-14T21:15:24.987Z,3.25
2019-05-14T21:17:51.213Z,3.17
2019-05-14T21:20:18.462Z,3.09
2019-05-14T21:22:44.684Z,2.99
2019-05-14T21:25:12.683Z,2.92
2019-05-14T21:27:47.883Z,2.87
2019-05-14T21:30:09.265Z,2.82
2019-05-14T21:32:35.659Z,2.76
2019-05-14T21:35:02.090Z,2.70
2019-05-14T21:37:28.500Z,2.65
2019-05-14T21:39:54.659Z,2.58
2019-05-14T21:42:20.788Z,2.53
2019-05-14T21:44:48.360Z,2.45
2019-05-14T21:47:15.162Z,2.36
2019-05-14T21:49:41.312Z,2.29
2019-05-14T21:52:09.068Z,2.20
2019-05-14T21:54:35.403Z,2.13
2019-05-14T21:57:02.156Z,2.05
2019-05-14T21:59:28.385Z,2.02
2019-05-14T22:01:54.628Z,1.99
2019-05-14T22:04:20.884Z,1.96
2019-05-14T22:06:49.000Z,1.92
2019-05-14T22:09:15.120Z,1.88
2019-05-14T22:11:41.369Z,1.85
2019-05-14T22:14:08.015Z,1.82
2019-05-14T22:16:37.907Z,1.76
2019-05-14T22:19:03.849Z,1.72
2019-05-14T22:21:30.087Z,1.67
2019-05-14T22:23:56.232Z,1.64
2019-05-14T22:26:22.470Z,1.61
2019-05-14T22:28:48.703Z,1.56
2019-05-14T22:31:17.099Z,1.53
2019-05-14T22:33:43.076Z,1.47
2019-05-14T22:36:09.328Z,1.38
2019-05-14T22:38:35.552Z,1.31
2019-05-14T22:41:01.797Z,1.25
2019-05-14T22:43:28.796Z,1.16
2019-05-14T22:45:55.174Z,1.11
2019-05-14T22:48:21.416Z,1.06
2019-05-14T22:50:48.628Z,1.03
2019-05-14T22:53:14.998Z,0.97
2019-05-14T22:55:41.226Z,0.91
2019-05-14T22:58:08.657Z,0.89
2019-05-14T23:00:35.629Z,0.78
2019-05-14T23:03:01.867Z,0.64
2019-05-14T23:05:28.966Z,0.58
2019-05-14T23:07:58.057Z,0.55
2019-05-14T23:10:23.689Z,0.55
2019-05-14T23:12:49.945Z,0.57
2019-05-14T23:15:18.186Z,0.56
2019-05-14T23:17:44.306Z,0.60
2019-05-14T23:20:10.635Z,0.62
2019-05-14T23:22:38.990Z,0.63
2019-05-14T23:25:08.726Z,0.68
2019-05-14T23:27:34.589Z,0.72
2019-05-14T23:30:00.825Z,0.74
2019-05-14T23:32:28.554Z,0.76
2019-05-14T23:34:54.913Z,0.82
2019-05-14T23:37:21.137Z,0.84
2019-05-14T23:39:49.055Z,0.79
2019-05-14T23:42:15.533Z,0.74
2019-05-14T23:44:42.091Z,0.75
2019-05-14T23:47:08.445Z,0.83
2019-05-14T23:49:34.672Z,0.86
2019-05-14T23:52:00.906Z,0.85
2019-05-14T23:54:29.132Z,0.84
2019-05-14T23:56:55.282Z,0.90
2019-05-14T23:59:21.533Z,0.97
